sensor_id;sensor_type;location;lat;lon;timestamp;P1;durP1;ratioP1;P2;durP2;ratioP2
41661;SDS011;27351;45.992;12.666;2022-09-01T00:01:01;2.03;;;1.13;;
41661;SDS011;27351;45.992;12.666;2022-09-01T00:03:27;1.88;;;1.00;;
41661;SDS011;27351;45.992;12.666;2022-09-01T00:05:53;2.88;;;1.00;;
41661;SDS011;27351;45.992;12.666;2022-09-01T00:08:24;1.95;;;1.00;;
41661;SDS011;27351;45.992;12.666;2022-09-01T00:10:50;2.20;;;1.00;;
41661;SDS011;27351;45.992;12.666;2022-09-01T00:13:16;0.97;;;0.80;;
41661;SDS011;27351;45.992;12.666;2022-09-01T00:15:41;2.80;;;0.73;;
41661;SDS011;27351;45.992;12.666;2022-09-01T00:18:08;2.35;;;0.60;;
41661;SDS011;27351;45.992;12.666;2022-09-01T00:20:34;2.65;;;0.73;;
41661;SDS011;27351;45.992;12.666;2022-09-01T00:23:00;2.50;;;0.75;;
41661;SDS011;27351;45.992;12.666;2022-09-01T00:25:25;1.30;;;0.80;;
41661;SDS011;27351;45.992;12.666;2022-09-01T00:27:52;3.63;;;0.80;;
41661;SDS011;27351;45.992;12.666;2022-09-01T00:30:18;1.92;;;0.70;;
41661;SDS011;27351;45.992;12.666;2022-09-01T00:32:43;1.67;;;0.60;;
41661;SDS011;27351;45.992;12.666;2022-09-01T00:35:17;2.70;;;0.90;;
41661;SDS011;27351;45.992;12.666;2022-09-01T00:37:43;0.60;;;0.50;;
41661;SDS011;27351;45.992;12.666;2022-09-01T00:40:11;1.25;;;0.35;;
41661;SDS011;27351;45.992;12.666;2022-09-01T00:42:38;1.42;;;0.60;;
41661;SDS011;27351;45.992;12.666;2022-09-01T00:45:05;0.77;;;0.47;;
41661;SDS011;27351;45.992;12.666;2022-09-01T00:47:30;3.30;;;0.60;;
41661;SDS011;27351;45.992;12.666;2022-09-01T00:49:56;2.05;;;0.63;;
41661;SDS011;27351;45.992;12.666;2022-09-01T00:52:28;1.70;;;0.80;;
41661;SDS011;27351;45.992;12.666;2022-09-01T00:54:57;2.08;;;0.80;;
41661;SDS011;27351;45.992;12.666;2022-09-01T00:57:23;1.38;;;0.60;;
41661;SDS011;27351;45.992;12.666;2022-09-01T00:59:58;2.55;;;0.80;;
41661;SDS011;27351;45.992;12.666;2022-09-01T01:02:25;3.10;;;0.80;;
41661;SDS011;27351;45.992;12.666;2022-09-01T01:04:51;1.65;;;0.68;;
41661;SDS011;27351;45.992;12.666;2022-09-01T01:07:17;2.97;;;0.60;;
41661;SDS011;27351;45.992;12.666;2022-09-01T01:09:44;3.70;;;0.60;;
41661;SDS011;27351;45.992;12.666;2022-09-01T01:12:10;2.70;;;0.90;;
41661;SDS011;27351;45.992;12.666;2022-09-01T01:14:38;1.52;;;0.63;;
41661;SDS011;27351;45.992;12.666;2022-09-01T01:17:05;3.05;;;0.82;;
41661;SDS011;27351;45.992;12.666;2022-09-01T01:25:26;1.50;;;0.60;;
41661;SDS011;27351;45.992;12.666;2022-09-01T01:27:51;1.03;;;0.53;;
41661;SDS011;27351;45.992;12.666;2022-09-01T01:30:29;2.03;;;0.70;;
41661;SDS011;27351;45.992;12.666;2022-09-01T01:33:02;3.00;;;0.70;;
41661;SDS011;27351;45.992;12.666;2022-09-01T01:35:28;0.50;;;0.40;;
41661;SDS011;27351;45.992;12.666;2022-09-01T01:37:56;1.05;;;0.50;;
41661;SDS011;27351;45.992;12.666;2022-09-01T01:40:22;4.10;;;0.60;;
41661;SDS011;27351;45.992;12.666;2022-09-01T01:42:49;1.65;;;0.52;;
41661;SDS011;27351;45.992;12.666;2022-09-01T01:45:17;1.80;;;0.52;;
41661;SDS011;27351;45.992;12.666;2022-09-01T01:47:52;0.68;;;0.40;;
41661;SDS011;27351;45.992;12.666;2022-09-01T01:50:25;2.80;;;0.67;;
41661;SDS011;27351;45.992;12.666;2022-09-01T01:52:52;2.45;;;0.57;;
41661;SDS011;27351;45.992;12.666;2022-09-01T01:55:19;1.98;;;0.50;;
41661;SDS011;27351;45.992;12.666;2022-09-01T01:57:46;0.70;;;0.57;;
41661;SDS011;27351;45.992;12.666;2022-09-01T02:00:19;1.90;;;0.73;;
41661;SDS011;27351;45.992;12.666;2022-09-01T02:02:46;1.50;;;0.60;;
41661;SDS011;27351;45.992;12.666;2022-09-01T02:05:27;2.75;;;0.70;;
41661;SDS011;27351;45.992;12.666;2022-09-01T02:07:54;2.80;;;0.90;;
41661;SDS011;27351;45.992;12.666;2022-09-01T02:10:44;3.53;;;0.80;;
41661;SDS011;27351;45.992;12.666;2022-09-01T02:13:14;3.55;;;1.10;;
41661;SDS011;27351;45.992;12.666;2022-09-01T02:15:44;3.40;;;0.95;;
41661;SDS011;27351;45.992;12.666;2022-09-01T02:18:11;1.67;;;0.90;;
41661;SDS011;27351;45.992;12.666;2022-09-01T02:20:39;2.47;;;1.27;;
41661;SDS011;27351;45.992;12.666;2022-09-01T02:23:05;3.58;;;1.10;;
41661;SDS011;27351;45.992;12.666;2022-09-01T02:25:40;3.00;;;1.30;;
41661;SDS011;27351;45.992;12.666;2022-09-01T02:28:09;1.52;;;1.02;;
41661;SDS011;27351;45.992;12.666;2022-09-01T02:30:42;2.65;;;1.10;;
41661;SDS011;27351;45.992;12.666;2022-09-01T02:33:11;2.13;;;1.10;;
41661;SDS011;27351;45.992;12.666;2022-09-01T02:35:45;3.28;;;1.20;;
41661;SDS011;27351;45.992;12.666;2022-09-01T02:38:12;4.03;;;1.20;;
41661;SDS011;27351;45.992;12.666;2022-09-01T02:40:39;3.03;;;1.35;;
41661;SDS011;27351;45.992;12.666;2022-09-01T02:43:09;2.70;;;1.38;;
41661;SDS011;27351;45.992;12.666;2022-09-01T02:45:37;2.67;;;1.27;;
41661;SDS011;27351;45.992;12.666;2022-09-01T02:48:03;2.63;;;1.10;;
41661;SDS011;27351;45.992;12.666;2022-09-01T02:50:33;3.03;;;1.25;;
41661;SDS011;27351;45.992;12.666;2022-09-01T02:52:59;3.10;;;1.27;;
41661;SDS011;27351;45.992;12.666;2022-09-01T02:55:26;2.65;;;1.33;;
41661;SDS011;27351;45.992;12.666;2022-09-01T02:57:52;3.27;;;1.50;;
41661;SDS011;27351;45.992;12.666;2022-09-01T03:00:22;2.63;;;1.13;;
41661;SDS011;27351;45.992;12.666;2022-09-01T03:02:55;2.80;;;1.30;;
41661;SDS011;27351;45.992;12.666;2022-09-01T03:05:23;4.00;;;1.30;;
41661;SDS011;27351;45.992;12.666;2022-09-01T03:07:56;3.60;;;1.27;;
41661;SDS011;27351;45.992;12.666;2022-09-01T03:10:23;3.10;;;1.43;;
41661;SDS011;27351;45.992;12.666;2022-09-01T03:12:56;2.33;;;1.13;;
41661;SDS011;27351;45.992;12.666;2022-09-01T03:15:23;2.10;;;1.15;;
41661;SDS011;27351;45.992;12.666;2022-09-01T03:17:49;1.52;;;0.95;;
41661;SDS011;27351;45.992;12.666;2022-09-01T03:20:15;2.05;;;0.88;;
41661;SDS011;27351;45.992;12.666;2022-09-01T03:22:43;1.60;;;0.70;;
41661;SDS011;27351;45.992;12.666;2022-09-01T03:25:09;1.67;;;1.15;;
41661;SDS011;27351;45.992;12.666;2022-09-01T03:27:35;1.70;;;0.90;;
41661;SDS011;27351;45.992;12.666;2022-09-01T03:30:00;2.63;;;1.10;;
41661;SDS011;27351;45.992;12.666;2022-09-01T03:32:26;2.83;;;1.20;;
41661;SDS011;27351;45.992;12.666;2022-09-01T03:34:54;1.97;;;0.90;;
41661;SDS011;27351;45.992;12.666;2022-09-01T03:37:20;2.00;;;1.00;;
41661;SDS011;27351;45.992;12.666;2022-09-01T03:39:48;2.35;;;0.93;;
41661;SDS011;27351;45.992;12.666;2022-09-01T03:42:14;1.38;;;0.90;;
41661;SDS011;27351;45.992;12.666;2022-09-01T03:44:47;1.70;;;0.90;;
41661;SDS011;27351;45.992;12.666;2022-09-01T03:47:14;3.35;;;1.05;;
41661;SDS011;27351;45.992;12.666;2022-09-01T03:49:42;1.50;;;0.90;;
41661;SDS011;27351;45.992;12.666;2022-09-01T03:52:08;1.17;;;0.70;;
41661;SDS011;27351;45.992;12.666;2022-09-01T03:54:34;1.43;;;0.87;;
41661;SDS011;27351;45.992;12.666;2022-09-01T03:57:00;2.05;;;0.70;;
41661;SDS011;27351;45.992;12.666;2022-09-01T03:59:26;1.35;;;0.90;;
41661;SDS011;27351;45.992;12.666;2022-09-01T04:01:52;1.35;;;0.80;;
41661;SDS011;27351;45.992;12.666;2022-09-01T04:04:19;1.30;;;0.80;;
41661;SDS011;27351;45.992;12.666;2022-09-01T04:06:45;2.80;;;0.80;;
41661;SDS011;27351;45.992;12.666;2022-09-01T04:09:12;2.03;;;0.80;;
41661;SDS011;27351;45.992;12.666;2022-09-01T04:11:41;1.02;;;0.70;;
41661;SDS011;27351;45.992;12.666;2022-09-01T04:14:11;0.95;;;0.70;;
41661;SDS011;27351;45.992;12.666;2022-09-01T04:16:38;0.90;;;0.70;;
41661;SDS011;27351;45.992;12.666;2022-09-01T04:19:24;5.53;;;0.85;;
41661;SDS011;27351;45.992;12.666;2022-09-01T04:21:52;2.50;;;0.95;;
41661;SDS011;27351;45.992;12.666;2022-09-01T04:24:19;1.02;;;0.63;;
41661;SDS011;27351;45.992;12.666;2022-09-01T04:26:46;2.13;;;0.63;;
41661;SDS011;27351;45.992;12.666;2022-09-01T04:29:14;1.90;;;0.88;;
41661;SDS011;27351;45.992;12.666;2022-09-01T04:31:43;1.83;;;0.60;;
41661;SDS011;27351;45.992;12.666;2022-09-01T04:34:09;2.97;;;0.63;;
41661;SDS011;27351;45.992;12.666;2022-09-01T04:36:41;1.27;;;0.68;;
41661;SDS011;27351;45.992;12.666;2022-09-01T04:39:09;3.28;;;1.00;;
41661;SDS011;27351;45.992;12.666;2022-09-01T04:41:38;2.27;;;0.83;;
41661;SDS011;27351;45.992;12.666;2022-09-01T04:44:04;2.25;;;0.70;;
41661;SDS011;27351;45.992;12.666;2022-09-01T04:46:35;1.92;;;0.70;;
41661;SDS011;27351;45.992;12.666;2022-09-01T04:49:04;2.35;;;0.90;;
41661;SDS011;27351;45.992;12.666;2022-09-01T04:51:37;3.15;;;0.98;;
41661;SDS011;27351;45.992;12.666;2022-09-01T04:54:03;1.38;;;0.98;;
41661;SDS011;27351;45.992;12.666;2022-09-01T04:56:33;1.30;;;0.93;;
41661;SDS011;27351;45.992;12.666;2022-09-01T04:59:10;1.20;;;0.70;;
41661;SDS011;27351;45.992;12.666;2022-09-01T05:01:38;2.10;;;0.80;;
41661;SDS011;27351;45.992;12.666;2022-09-01T05:04:18;3.63;;;1.05;;
41661;SDS011;27351;45.992;12.666;2022-09-01T05:06:47;2.10;;;0.90;;
41661;SDS011;27351;45.992;12.666;2022-09-01T05:09:18;2.70;;;0.80;;
41661;SDS011;27351;45.992;12.666;2022-09-01T05:12:04;2.30;;;0.88;;
41661;SDS011;27351;45.992;12.666;2022-09-01T05:14:39;1.65;;;0.80;;
41661;SDS011;27351;45.992;12.666;2022-09-01T05:17:09;3.17;;;0.80;;
41661;SDS011;27351;45.992;12.666;2022-09-01T05:19:37;1.30;;;0.60;;
41661;SDS011;27351;45.992;12.666;2022-09-01T05:22:03;3.05;;;0.65;;
41661;SDS011;27351;45.992;12.666;2022-09-01T05:24:31;2.65;;;0.55;;
41661;SDS011;27351;45.992;12.666;2022-09-01T05:27:03;2.03;;;0.50;;
41661;SDS011;27351;45.992;12.666;2022-09-01T05:29:33;1.10;;;0.60;;
41661;SDS011;27351;45.992;12.666;2022-09-01T05:32:00;1.67;;;0.60;;
41661;SDS011;27351;45.992;12.666;2022-09-01T05:34:34;1.17;;;0.73;;
41661;SDS011;27351;45.992;12.666;2022-09-01T05:37:02;4.63;;;0.82;;
41661;SDS011;27351;45.992;12.666;2022-09-01T05:39:30;2.15;;;0.70;;
41661;SDS011;27351;45.992;12.666;2022-09-01T05:41:57;2.05;;;0.75;;
41661;SDS011;27351;45.992;12.666;2022-09-01T05:44:23;1.40;;;0.80;;
41661;SDS011;27351;45.992;12.666;2022-09-01T05:46:51;1.05;;;0.60;;
41661;SDS011;27351;45.992;12.666;2022-09-01T05:49:18;1.48;;;0.63;;
41661;SDS011;27351;45.992;12.666;2022-09-01T05:51:47;2.15;;;0.75;;
41661;SDS011;27351;45.992;12.666;2022-09-01T05:54:18;1.00;;;0.60;;
41661;SDS011;27351;45.992;12.666;2022-09-01T05:56:45;1.35;;;0.70;;
41661;SDS011;27351;45.992;12.666;2022-09-01T05:59:20;2.63;;;0.70;;
41661;SDS011;27351;45.992;12.666;2022-09-01T06:01:48;4.28;;;0.95;;
41661;SDS011;27351;45.992;12.666;2022-09-01T06:04:14;2.00;;;0.73;;
41661;SDS011;27351;45.992;12.666;2022-09-01T06:06:42;2.80;;;0.90;;
41661;SDS011;27351;45.992;12.666;2022-09-01T06:09:14;4.25;;;1.00;;
41661;SDS011;27351;45.992;12.666;2022-09-01T06:11:44;1.52;;;0.70;;
41661;SDS011;27351;45.992;12.666;2022-09-01T06:14:12;1.27;;;0.63;;
41661;SDS011;27351;45.992;12.666;2022-09-01T06:16:42;3.33;;;0.82;;
41661;SDS011;27351;45.992;12.666;2022-09-01T06:19:09;1.73;;;0.75;;
41661;SDS011;27351;45.992;12.666;2022-09-01T06:21:39;1.80;;;0.90;;
41661;SDS011;27351;45.992;12.666;2022-09-01T06:24:05;4.68;;;0.90;;
41661;SDS011;27351;45.992;12.666;2022-09-01T06:26:33;2.28;;;0.85;;
41661;SDS011;27351;45.992;12.666;2022-09-01T06:29:04;2.17;;;0.80;;
41661;SDS011;27351;45.992;12.666;2022-09-01T06:31:32;1.50;;;0.98;;
41661;SDS011;27351;45.992;12.666;2022-09-01T06:34:06;2.30;;;0.70;;
41661;SDS011;27351;45.992;12.666;2022-09-01T06:36:34;2.95;;;0.90;;
41661;SDS011;27351;45.992;12.666;2022-09-01T06:39:02;1.10;;;0.63;;
41661;SDS011;27351;45.992;12.666;2022-09-01T06:41:29;2.50;;;0.73;;
41661;SDS011;27351;45.992;12.666;2022-09-01T06:43:57;2.50;;;0.50;;
41661;SDS011;27351;45.992;12.666;2022-09-01T06:46:26;1.02;;;0.65;;
41661;SDS011;27351;45.992;12.666;2022-09-01T06:48:59;2.25;;;0.70;;
41661;SDS011;27351;45.992;12.666;2022-09-01T06:51:26;1.80;;;0.70;;
41661;SDS011;27351;45.992;12.666;2022-09-01T06:53:58;1.05;;;0.57;;
41661;SDS011;27351;45.992;12.666;2022-09-01T06:56:30;1.70;;;0.60;;
41661;SDS011;27351;45.992;12.666;2022-09-01T06:58:59;0.90;;;0.55;;
41661;SDS011;27351;45.992;12.666;2022-09-01T07:01:27;2.40;;;0.73;;
41661;SDS011;27351;45.992;12.666;2022-09-01T07:03:54;1.65;;;0.60;;
41661;SDS011;27351;45.992;12.666;2022-09-01T07:06:45;1.05;;;0.50;;
41661;SDS011;27351;45.992;12.666;2022-09-01T07:09:14;1.35;;;0.60;;
41661;SDS011;27351;45.992;12.666;2022-09-01T07:11:42;1.80;;;0.70;;
41661;SDS011;27351;45.992;12.666;2022-09-01T07:14:08;1.35;;;0.60;;
41661;SDS011;27351;45.992;12.666;2022-09-01T07:16:35;2.45;;;0.70;;
41661;SDS011;27351;45.992;12.666;2022-09-01T07:19:07;1.63;;;0.60;;
41661;SDS011;27351;45.992;12.666;2022-09-01T07:21:51;1.92;;;0.55;;
41661;SDS011;27351;45.992;12.666;2022-09-01T07:24:18;1.60;;;0.50;;
41661;SDS011;27351;45.992;12.666;2022-09-01T07:27:02;1.70;;;0.65;;
41661;SDS011;27351;45.992;12.666;2022-09-01T07:29:28;0.73;;;0.50;;
41661;SDS011;27351;45.992;12.666;2022-09-01T07:31:54;0.98;;;0.50;;
41661;SDS011;27351;45.992;12.666;2022-09-01T07:34:21;2.80;;;0.70;;
41661;SDS011;27351;45.992;12.666;2022-09-01T07:36:50;0.93;;;0.55;;
41661;SDS011;27351;45.992;12.666;2022-09-01T07:39:21;1.30;;;0.55;;
41661;SDS011;27351;45.992;12.666;2022-09-01T07:42:05;1.20;;;0.50;;
41661;SDS011;27351;45.992;12.666;2022-09-01T07:45:01;2.17;;;0.57;;
41661;SDS011;27351;45.992;12.666;2022-09-01T07:47:45;2.35;;;0.73;;
41661;SDS011;27351;45.992;12.666;2022-09-01T07:50:12;1.13;;;0.52;;
41661;SDS011;27351;45.992;12.666;2022-09-01T07:52:40;4.93;;;1.00;;
41661;SDS011;27351;45.992;12.666;2022-09-01T07:55:09;2.08;;;0.45;;
41661;SDS011;27351;45.992;12.666;2022-09-01T07:57:37;0.88;;;0.50;;
41661;SDS011;27351;45.992;12.666;2022-09-01T08:00:04;0.70;;;0.43;;
41661;SDS011;27351;45.992;12.666;2022-09-01T08:02:40;1.77;;;0.80;;
41661;SDS011;27351;45.992;12.666;2022-09-01T08:05:08;1.77;;;0.60;;
41661;SDS011;27351;45.992;12.666;2022-09-01T08:07:36;1.85;;;0.50;;
41661;SDS011;27351;45.992;12.666;2022-09-01T08:10:03;0.97;;;0.50;;
41661;SDS011;27351;45.992;12.666;2022-09-01T08:12:32;2.10;;;0.60;;
41661;SDS011;27351;45.992;12.666;2022-09-01T08:15:00;0.80;;;0.40;;
41661;SDS011;27351;45.992;12.666;2022-09-01T08:17:26;1.63;;;0.80;;
41661;SDS011;27351;45.992;12.666;2022-09-01T08:19:53;1.17;;;0.55;;
41661;SDS011;27351;45.992;12.666;2022-09-01T08:22:30;0.75;;;0.50;;
41661;SDS011;27351;45.992;12.666;2022-09-01T08:25:01;1.58;;;1.00;;
41661;SDS011;27351;45.992;12.666;2022-09-01T08:27:28;1.05;;;0.60;;
41661;SDS011;27351;45.992;12.666;2022-09-01T08:29:53;4.07;;;0.60;;
41661;SDS011;27351;45.992;12.666;2022-09-01T08:32:19;1.80;;;0.60;;
41661;SDS011;27351;45.992;12.666;2022-09-01T08:34:46;0.47;;;0.38;;
41661;SDS011;27351;45.992;12.666;2022-09-01T08:37:12;0.70;;;0.55;;
41661;SDS011;27351;45.992;12.666;2022-09-01T08:39:39;1.15;;;0.70;;
41661;SDS011;27351;45.992;12.666;2022-09-01T08:42:12;3.95;;;0.50;;
41661;SDS011;27351;45.992;12.666;2022-09-01T08:44:49;1.93;;;0.73;;
41661;SDS011;27351;45.992;12.666;2022-09-01T08:47:16;1.00;;;0.50;;
41661;SDS011;27351;45.992;12.666;2022-09-01T08:49:43;1.67;;;0.43;;
41661;SDS011;27351;45.992;12.666;2022-09-01T08:54:51;2.50;;;0.50;;
41661;SDS011;27351;45.992;12.666;2022-09-01T08:57:32;0.93;;;0.32;;
41661;SDS011;27351;45.992;12.666;2022-09-01T09:00:18;1.40;;;0.90;;
41661;SDS011;27351;45.992;12.666;2022-09-01T09:15:57;1.20;;;0.40;;
41661;SDS011;27351;45.992;12.666;2022-09-01T09:18:28;0.90;;;0.50;;
41661;SDS011;27351;45.992;12.666;2022-09-01T09:20:54;1.02;;;0.60;;
41661;SDS011;27351;45.992;12.666;2022-09-01T09:23:26;1.52;;;0.45;;
41661;SDS011;27351;45.992;12.666;2022-09-01T09:25:54;2.65;;;0.82;;
41661;SDS011;27351;45.992;12.666;2022-09-01T09:28:20;1.48;;;0.60;;
41661;SDS011;27351;45.992;12.666;2022-09-01T09:30:46;0.70;;;0.50;;
41661;SDS011;27351;45.992;12.666;2022-09-01T09:33:33;1.30;;;0.60;;
41661;SDS011;27351;45.992;12.666;2022-09-01T09:36:08;1.05;;;0.60;;
41661;SDS011;27351;45.992;12.666;2022-09-01T09:38:39;1.40;;;0.68;;
41661;SDS011;27351;45.992;12.666;2022-09-01T09:41:06;1.97;;;0.57;;
41661;SDS011;27351;45.992;12.666;2022-09-01T09:43:34;1.05;;;0.60;;
41661;SDS011;27351;45.992;12.666;2022-09-01T09:46:20;1.10;;;0.50;;
41661;SDS011;27351;45.992;12.666;2022-09-01T09:48:48;0.80;;;0.50;;
41661;SDS011;27351;45.992;12.666;2022-09-01T09:51:20;1.77;;;0.60;;
41661;SDS011;27351;45.992;12.666;2022-09-01T09:53:47;1.20;;;0.60;;
41661;SDS011;27351;45.992;12.666;2022-09-01T09:56:17;1.03;;;0.50;;
41661;SDS011;27351;45.992;12.666;2022-09-01T09:58:43;1.85;;;0.55;;
41661;SDS011;27351;45.992;12.666;2022-09-01T10:01:12;0.82;;;0.50;;
41661;SDS011;27351;45.992;12.666;2022-09-01T10:06:09;0.50;;;0.50;;
41661;SDS011;27351;45.992;12.666;2022-09-01T10:08:37;1.30;;;0.60;;
41661;SDS011;27351;45.992;12.666;2022-09-01T10:11:10;0.68;;;0.47;;
41661;SDS011;27351;45.992;12.666;2022-09-01T10:13:38;2.25;;;0.70;;
41661;SDS011;27351;45.992;12.666;2022-09-01T10:16:06;1.23;;;0.50;;
41661;SDS011;27351;45.992;12.666;2022-09-01T10:18:36;1.20;;;0.50;;
41661;SDS011;27351;45.992;12.666;2022-09-01T10:21:05;1.50;;;0.50;;
41661;SDS011;27351;45.992;12.666;2022-09-01T10:23:33;0.90;;;0.47;;
41661;SDS011;27351;45.992;12.666;2022-09-01T10:26:05;1.73;;;0.40;;
41661;SDS011;27351;45.992;12.666;2022-09-01T10:28:32;1.23;;;0.60;;
41661;SDS011;27351;45.992;12.666;2022-09-01T10:30:58;1.10;;;0.45;;
41661;SDS011;27351;45.992;12.666;2022-09-01T10:33:24;0.87;;;0.40;;
41661;SDS011;27351;45.992;12.666;2022-09-01T10:35:50;1.20;;;0.50;;
41661;SDS011;27351;45.992;12.666;2022-09-01T10:38:24;1.17;;;0.57;;
41661;SDS011;27351;45.992;12.666;2022-09-01T10:40:52;2.60;;;0.60;;
41661;SDS011;27351;45.992;12.666;2022-09-01T10:48:50;2.00;;;0.60;;
41661;SDS011;27351;45.992;12.666;2022-09-01T10:53:49;3.40;;;0.60;;
41661;SDS011;27351;45.992;12.666;2022-09-01T10:58:46;1.13;;;0.50;;
41661;SDS011;27351;45.992;12.666;2022-09-01T11:01:13;0.77;;;0.45;;
41661;SDS011;27351;45.992;12.666;2022-09-01T11:09:18;0.73;;;0.40;;
41661;SDS011;27351;45.992;12.666;2022-09-01T11:11:50;1.10;;;0.70;;
41661;SDS011;27351;45.992;12.666;2022-09-01T11:14:20;4.50;;;0.60;;
41661;SDS011;27351;45.992;12.666;2022-09-01T11:22:30;3.92;;;0.60;;
41661;SDS011;27351;45.992;12.666;2022-09-01T11:32:57;0.50;;;0.50;;
41661;SDS011;27351;45.992;12.666;2022-09-01T11:35:24;2.60;;;0.50;;
41661;SDS011;27351;45.992;12.666;2022-09-01T11:37:52;0.60;;;0.50;;
41661;SDS011;27351;45.992;12.666;2022-09-01T11:40:20;0.90;;;0.50;;
41661;SDS011;27351;45.992;12.666;2022-09-01T11:42:47;1.75;;;0.55;;
41661;SDS011;27351;45.992;12.666;2022-09-01T11:45:16;2.40;;;0.80;;
41661;SDS011;27351;45.992;12.666;2022-09-01T11:47:46;3.63;;;0.60;;
41661;SDS011;27351;45.992;12.666;2022-09-01T11:50:21;2.78;;;0.70;;
41661;SDS011;27351;45.992;12.666;2022-09-01T11:53:21;1.75;;;0.60;;
41661;SDS011;27351;45.992;12.666;2022-09-01T11:55:43;1.80;;;0.80;;
41661;SDS011;27351;45.992;12.666;2022-09-01T11:58:10;1.00;;;0.70;;
41661;SDS011;27351;45.992;12.666;2022-09-01T12:00:38;1.20;;;0.70;;
41661;SDS011;27351;45.992;12.666;2022-09-01T12:03:26;2.38;;;0.80;;
41661;SDS011;27351;45.992;12.666;2022-09-01T12:05:55;2.50;;;0.90;;
41661;SDS011;27351;45.992;12.666;2022-09-01T12:08:25;1.15;;;0.50;;
41661;SDS011;27351;45.992;12.666;2022-09-01T12:11:03;0.80;;;0.60;;
41661;SDS011;27351;45.992;12.666;2022-09-01T12:13:29;2.67;;;0.70;;
41661;SDS011;27351;45.992;12.666;2022-09-01T12:15:58;2.50;;;0.80;;
41661;SDS011;27351;45.992;12.666;2022-09-01T12:18:35;0.55;;;0.50;;
41661;SDS011;27351;45.992;12.666;2022-09-01T12:21:04;1.45;;;0.60;;
41661;SDS011;27351;45.992;12.666;2022-09-01T12:23:33;1.65;;;0.90;;
41661;SDS011;27351;45.992;12.666;2022-09-01T12:26:00;2.15;;;0.90;;
41661;SDS011;27351;45.992;12.666;2022-09-01T12:28:27;1.77;;;0.70;;
41661;SDS011;27351;45.992;12.666;2022-09-01T12:31:00;1.90;;;0.82;;
41661;SDS011;27351;45.992;12.666;2022-09-01T12:33:26;2.17;;;0.95;;
41661;SDS011;27351;45.992;12.666;2022-09-01T12:36:12;2.28;;;0.93;;
41661;SDS011;27351;45.992;12.666;2022-09-01T12:38:37;2.00;;;0.90;;
41661;SDS011;27351;45.992;12.666;2022-09-01T12:41:15;1.50;;;0.90;;
41661;SDS011;27351;45.992;12.666;2022-09-01T12:43:46;2.53;;;0.70;;
41661;SDS011;27351;45.992;12.666;2022-09-01T12:46:38;2.83;;;0.90;;
41661;SDS011;27351;45.992;12.666;2022-09-01T12:49:14;1.52;;;0.80;;
41661;SDS011;27351;45.992;12.666;2022-09-01T12:51:40;1.92;;;1.05;;
41661;SDS011;27351;45.992;12.666;2022-09-01T12:54:06;1.27;;;0.80;;
41661;SDS011;27351;45.992;12.666;2022-09-01T12:56:33;1.27;;;0.80;;
41661;SDS011;27351;45.992;12.666;2022-09-01T13:01:31;1.10;;;0.93;;
41661;SDS011;27351;45.992;12.666;2022-09-01T13:04:11;2.95;;;1.05;;
41661;SDS011;27351;45.992;12.666;2022-09-01T13:06:37;1.35;;;0.73;;
41661;SDS011;27351;45.992;12.666;2022-09-01T13:09:03;2.50;;;0.80;;
41661;SDS011;27351;45.992;12.666;2022-09-01T13:11:29;1.42;;;0.70;;
41661;SDS011;27351;45.992;12.666;2022-09-01T13:13:54;3.50;;;0.82;;
41661;SDS011;27351;45.992;12.666;2022-09-01T13:16:20;1.90;;;0.70;;
41661;SDS011;27351;45.992;12.666;2022-09-01T13:18:45;1.60;;;0.70;;
41661;SDS011;27351;45.992;12.666;2022-09-01T13:21:11;1.10;;;0.70;;
41661;SDS011;27351;45.992;12.666;2022-09-01T13:23:38;2.38;;;0.68;;
41661;SDS011;27351;45.992;12.666;2022-09-01T13:26:04;1.88;;;0.82;;
41661;SDS011;27351;45.992;12.666;2022-09-01T13:28:30;1.17;;;0.70;;
41661;SDS011;27351;45.992;12.666;2022-09-01T13:30:57;1.40;;;0.73;;
41661;SDS011;27351;45.992;12.666;2022-09-01T13:33:23;2.78;;;1.00;;
41661;SDS011;27351;45.992;12.666;2022-09-01T13:35:49;2.33;;;1.00;;
41661;SDS011;27351;45.992;12.666;2022-09-01T13:38:15;1.67;;;1.00;;
41661;SDS011;27351;45.992;12.666;2022-09-01T13:40:41;1.40;;;0.90;;
41661;SDS011;27351;45.992;12.666;2022-09-01T13:43:07;1.80;;;1.00;;
41661;SDS011;27351;45.992;12.666;2022-09-01T13:45:33;1.80;;;1.00;;
41661;SDS011;27351;45.992;12.666;2022-09-01T13:47:59;2.13;;;0.90;;
41661;SDS011;27351;45.992;12.666;2022-09-01T13:50:25;1.57;;;0.97;;
41661;SDS011;27351;45.992;12.666;2022-09-01T13:52:54;1.88;;;1.10;;
41661;SDS011;27351;45.992;12.666;2022-09-01T13:55:25;1.95;;;1.00;;
41661;SDS011;27351;45.992;12.666;2022-09-01T13:57:51;1.88;;;1.02;;
41661;SDS011;27351;45.992;12.666;2022-09-01T14:00:18;1.77;;;1.00;;
41661;SDS011;27351;45.992;12.666;2022-09-01T14:02:45;1.70;;;1.10;;
41661;SDS011;27351;45.992;12.666;2022-09-01T14:05:18;2.67;;;1.17;;
41661;SDS011;27351;45.992;12.666;2022-09-01T14:07:44;1.92;;;1.02;;
41661;SDS011;27351;45.992;12.666;2022-09-01T14:10:10;2.03;;;1.20;;
41661;SDS011;27351;45.992;12.666;2022-09-01T14:12:36;4.90;;;1.20;;
41661;SDS011;27351;45.992;12.666;2022-09-01T14:15:02;2.37;;;1.30;;
41661;SDS011;27351;45.992;12.666;2022-09-01T14:17:28;3.03;;;1.20;;
41661;SDS011;27351;45.992;12.666;2022-09-01T14:19:54;2.40;;;1.13;;
41661;SDS011;27351;45.992;12.666;2022-09-01T14:22:20;3.38;;;1.10;;
41661;SDS011;27351;45.992;12.666;2022-09-01T14:24:45;2.03;;;1.10;;
41661;SDS011;27351;45.992;12.666;2022-09-01T14:27:13;2.80;;;1.00;;
41661;SDS011;27351;45.992;12.666;2022-09-01T14:29:39;3.70;;;1.37;;
41661;SDS011;27351;45.992;12.666;2022-09-01T14:32:04;3.20;;;1.00;;
41661;SDS011;27351;45.992;12.666;2022-09-01T14:34:32;2.58;;;0.90;;
41661;SDS011;27351;45.992;12.666;2022-09-01T14:36:58;1.35;;;1.00;;
41661;SDS011;27351;45.992;12.666;2022-09-01T14:39:23;1.83;;;0.90;;
41661;SDS011;27351;45.992;12.666;2022-09-01T14:41:49;2.43;;;1.00;;
41661;SDS011;27351;45.992;12.666;2022-09-01T14:44:14;1.90;;;0.80;;
41661;SDS011;27351;45.992;12.666;2022-09-01T14:46:40;3.30;;;0.80;;
41661;SDS011;27351;45.992;12.666;2022-09-01T14:49:05;4.38;;;1.05;;
41661;SDS011;27351;45.992;12.666;2022-09-01T14:51:32;1.58;;;0.90;;
41661;SDS011;27351;45.992;12.666;2022-09-01T14:53:58;0.93;;;0.75;;
41661;SDS011;27351;45.992;12.666;2022-09-01T14:56:24;1.35;;;0.90;;
41661;SDS011;27351;45.992;12.666;2022-09-01T14:58:50;0.90;;;0.70;;
41661;SDS011;27351;45.992;12.666;2022-09-01T15:01:18;2.00;;;0.90;;
41661;SDS011;27351;45.992;12.666;2022-09-01T15:03:45;2.25;;;0.90;;
41661;SDS011;27351;45.992;12.666;2022-09-01T15:06:11;1.55;;;0.88;;
41661;SDS011;27351;45.992;12.666;2022-09-01T15:08:37;3.70;;;1.17;;
41661;SDS011;27351;45.992;12.666;2022-09-01T15:11:06;3.47;;;1.30;;
41661;SDS011;27351;45.992;12.666;2022-09-01T15:13:32;2.50;;;1.10;;
41661;SDS011;27351;45.992;12.666;2022-09-01T15:15:57;2.00;;;1.20;;
41661;SDS011;27351;45.992;12.666;2022-09-01T15:18:23;4.00;;;1.20;;
41661;SDS011;27351;45.992;12.666;2022-09-01T15:20:49;3.00;;;1.20;;
41661;SDS011;27351;45.992;12.666;2022-09-01T15:23:16;3.15;;;0.90;;
41661;SDS011;27351;45.992;12.666;2022-09-01T15:25:42;4.43;;;1.20;;
41661;SDS011;27351;45.992;12.666;2022-09-01T15:28:08;3.08;;;1.30;;
41661;SDS011;27351;45.992;12.666;2022-09-01T15:30:35;1.90;;;1.10;;
41661;SDS011;27351;45.992;12.666;2022-09-01T15:33:01;2.03;;;1.10;;
41661;SDS011;27351;45.992;12.666;2022-09-01T15:35:27;3.38;;;1.00;;
41661;SDS011;27351;45.992;12.666;2022-09-01T15:37:54;2.58;;;1.20;;
41661;SDS011;27351;45.992;12.666;2022-09-01T15:40:21;4.07;;;1.23;;